.
WxDataArchive / Data Records for 2007-05-18
2007-05-17 May 2007 2007-05-19

Data Records for Friday, 18 May 2007

Time	Temp	Chill	HIndex	Humid	Dewpt	 Wind 	HiWind	WindDir	Rain 	Barom 
-----	----	-----	------	-----	-----	------	------	-------	-----	----- 
00:00	39.5	39.5	39.5	91	37.1	0	0	---	0.00	30.245 
00:05	39.3	39.3	39.3	91	36.9	0	0	---	0.00	30.246 
00:10	39.3	39.3	39.3	92	37.2	0	0	---	0.00	30.247 
00:15	39.2	39.2	39.2	92	37.1	0	0	---	0.00	30.248 
00:20	39.2	39.2	39.2	92	37.1	0	0	---	0.00	30.248 
00:25	39.1	39.1	39.1	92	37.0	0	0	---	0.00	30.247 
00:30	38.9	38.9	38.9	92	36.8	0	0	---	0.00	30.245 
00:35	38.8	38.8	38.8	92	36.7	0	0	---	0.00	30.245 
00:40	38.8	38.8	38.8	92	36.7	0	0	---	0.00	30.246 
00:45	38.6	38.6	38.6	93	36.8	0	0	---	0.00	30.242 
00:50	38.6	38.6	38.6	93	36.8	0	0	---	0.00	30.242 
00:55	38.5	38.5	38.5	93	36.7	0	0	---	0.00	30.242 
01:00	38.3	38.3	38.3	93	36.5	0	0	---	0.00	30.240 
01:05	38.3	38.3	38.3	93	36.5	0	0	---	0.00	30.243 
01:10	38.3	38.3	38.3	93	36.5	0	0	---	0.00	30.244 
01:15	38.3	38.3	38.3	93	36.5	0	0	---	0.00	30.243 
01:20	38.3	38.3	38.3	94	36.7	0	0	---	0.00	30.242 
01:25	38.3	38.3	38.3	94	36.7	0	0	---	0.00	30.242 
01:30	38.3	38.3	38.3	94	36.7	0	0	---	0.00	30.242 
01:35	38.2	38.2	38.2	94	36.6	0	0	---	0.00	30.241 
01:40	38.0	38.0	38.0	94	36.4	0	0	---	0.00	30.241 
01:45	38.0	38.0	38.0	94	36.4	0	0	---	0.00	30.240 
01:50	37.9	37.9	37.9	94	36.3	0	0	---	0.00	30.240 
01:55	37.9	37.9	37.9	94	36.3	0	0	---	0.00	30.240 
02:00	37.8	37.8	37.8	94	36.2	0	0	---	0.00	30.239 
02:05	37.6	37.6	37.6	94	36.0	0	0	---	0.00	30.240 
02:10	37.5	37.5	37.5	94	35.9	0	0	---	0.00	30.241 
02:15	37.3	37.3	37.3	94	35.7	0	0	---	0.00	30.241 
02:20	37.3	37.3	37.3	94	35.7	0	0	---	0.00	30.241 
02:25	37.2	37.2	37.2	94	35.6	0	0	---	0.00	30.242 
02:30	37.0	37.0	37.0	94	35.4	0	0	---	0.00	30.242 
02:35	37.0	37.0	37.0	94	35.4	0	0	---	0.00	30.241 
02:40	37.0	37.0	37.0	94	35.4	0	0	---	0.00	30.241 
02:45	37.0	37.0	37.0	95	35.7	0	0	---	0.00	30.242 
02:50	36.9	36.9	36.9	95	35.6	0	0	---	0.00	30.243 
02:55	37.0	37.0	37.0	95	35.7	0	0	---	0.00	30.243 
03:00	36.9	36.9	36.9	95	35.6	0	0	---	0.00	30.242 
03:05	36.9	36.9	36.9	95	35.6	0	0	---	0.00	30.241 
03:10	36.9	36.9	36.9	95	35.6	0	0	---	0.00	30.241 
03:15	36.8	36.8	36.8	95	35.5	0	0	---	0.00	30.240 
03:20	36.6	36.6	36.6	95	35.3	0	0	---	0.00	30.241 
03:25	36.6	36.6	36.6	95	35.3	0	0	---	0.00	30.242 
03:30	36.5	36.5	36.5	95	35.2	0	0	---	0.00	30.242 
03:35	36.5	36.5	36.5	95	35.2	0	0	---	0.00	30.243 
03:40	36.5	36.5	36.5	95	35.2	0	0	---	0.00	30.246 
03:45	36.3	36.3	36.3	95	35.0	0	0	---	0.00	30.250 
03:50	36.3	36.3	36.3	95	35.0	0	0	---	0.00	30.252 
03:55	36.2	36.2	36.2	95	34.9	0	0	---	0.00	30.253 
04:00	36.2	36.2	36.2	95	34.9	0	0	---	0.00	30.253 
04:05	36.2	36.2	36.2	95	34.9	0	0	---	0.00	30.254 
04:10	36.0	36.0	36.0	95	34.7	0	0	---	0.00	30.256 
04:15	35.9	35.9	35.9	95	34.6	0	0	---	0.00	30.257 
04:20	35.9	35.9	35.9	95	34.6	0	0	---	0.00	30.256 
04:25	35.8	35.8	35.8	95	34.5	0	0	---	0.00	30.256 
04:30	35.8	35.8	35.8	95	34.5	0	0	---	0.00	30.257 
04:35	35.8	35.8	35.8	95	34.5	0	0	---	0.00	30.257 
04:40	35.6	35.6	35.6	95	34.3	0	0	---	0.00	30.257 
04:45	35.8	35.8	35.8	95	34.5	0	0	---	0.00	30.258 
04:50	35.8	35.8	35.8	96	34.8	0	0	---	0.00	30.259 
04:55	35.8	35.8	35.8	96	34.8	0	0	---	0.00	30.260 
05:00	35.8	35.8	35.8	95	34.5	0	0	---	0.00	30.260 
05:05	35.6	35.6	35.6	96	34.6	0	0	---	0.00	30.260 
05:10	35.5	35.5	35.5	95	34.2	0	0	---	0.00	30.259 
05:15	35.3	35.3	35.3	95	34.0	0	0	---	0.00	30.263 
05:20	35.3	35.3	35.3	95	34.0	0	0	---	0.00	30.265 
05:25	35.2	35.2	35.2	96	34.2	0	0	---	0.00	30.267 
05:30	35.2	35.2	35.2	95	33.9	0	0	---	0.00	30.268 
05:35	35.2	35.2	35.2	96	34.2	0	0	---	0.00	30.269 
05:40	35.3	35.3	35.3	96	34.3	0	0	---	0.00	30.269 
05:45	35.3	35.3	35.3	96	34.3	0	0	---	0.00	30.270 
05:50	35.5	35.5	35.5	96	34.5	0	0	---	0.00	30.268 
05:55	35.8	35.8	35.8	96	34.8	0	0	---	0.00	30.269 
06:00	35.9	35.9	35.9	96	34.9	0	0	---	0.00	30.270 
06:05	36.0	36.0	36.0	96	35.0	0	0	---	0.00	30.273 
06:10	36.3	36.3	36.3	96	35.3	0	0	---	0.00	30.274 
06:15	36.8	36.8	36.8	96	35.8	0	0	---	0.00	30.273 
06:20	37.5	37.5	37.5	96	36.5	0	0	---	0.00	30.274 
06:25	38.3	38.3	38.3	96	37.3	0	0	---	0.00	30.273 
06:30	39.1	39.1	39.1	96	38.1	0	0	---	0.00	30.274 
06:35	39.8	39.8	39.8	97	39.0	0	0	---	0.00	30.275 
06:40	40.3	40.3	40.3	97	39.5	0	0	---	0.00	30.276 
06:45	41.2	41.2	41.2	97	40.4	0	0	---	0.00	30.278 
06:50	41.9	41.9	41.9	97	41.1	0	0	---	0.00	30.280 
06:55	42.3	42.3	42.3	97	41.5	0	0	---	0.00	30.281 
07:00	42.9	42.9	42.9	97	42.1	0	0	---	0.00	30.281 
07:05	43.6	43.6	43.6	97	42.8	0	1	112	0.00	30.283 
07:10	44.2	44.2	44.2	96	43.1	0	1	112	0.00	30.284 
07:15	44.8	44.8	44.8	92	42.6	0	1	112	0.00	30.282 
07:20	45.7	45.7	45.7	87	42.1	0	1	112	0.00	30.283 
07:25	46.5	46.5	46.5	82	41.3	0	1	112	0.00	30.284 
07:30	47.4	47.4	47.4	80	41.5	0	1	112	0.00	30.284 
07:35	48.0	48.0	48.0	77	41.1	0	1	112	0.00	30.283 
07:40	48.6	48.6	48.6	74	40.7	0	1	112	0.00	30.282 
07:45	49.1	49.1	49.1	69	39.4	0	2	112	0.00	30.283 
07:50	49.6	49.6	49.6	70	40.2	0	1	22	0.00	30.284 
07:55	50.2	50.2	50.2	67	39.7	0	2	0	0.00	30.282 
08:00	50.7	50.7	50.7	66	39.8	0	2	0	0.00	30.280 
08:05	51.1	51.1	51.1	66	40.1	0	1	0	0.00	30.284 
08:10	52.0	52.0	52.0	65	40.6	0	1	0	0.00	30.282 
08:15	52.5	52.5	52.5	63	40.3	0	2	0	0.00	30.282 
08:20	52.9	52.9	52.9	62	40.2	1	2	338	0.00	30.282 
08:25	53.2	53.2	53.2	59	39.2	0	2	338	0.00	30.282 
08:30	54.1	54.1	54.1	58	39.7	1	3	338	0.00	30.280 
08:35	54.7	54.7	54.7	57	39.8	1	3	270	0.00	30.280 
08:40	55.0	55.0	55.0	56	39.6	0	1	270	0.00	30.281 
08:45	55.7	55.7	55.7	55	39.8	0	3	202	0.00	30.278 
08:50	56.5	56.5	56.5	52	39.1	1	4	112	0.00	30.279 
08:55	57.2	57.2	57.2	47	37.2	1	3	112	0.00	30.278 
09:00	57.5	57.5	57.5	51	39.5	0	2	68	0.00	30.276 
09:05	57.5	57.5	57.5	48	38.0	1	2	45	0.00	30.281 
09:10	58.1	58.1	58.1	45	36.9	1	4	45	0.00	30.281 
09:15	58.3	58.3	58.3	42	35.3	1	3	90	0.00	30.281 
09:20	58.4	58.4	58.4	46	37.7	1	4	270	0.00	30.280 
09:25	58.6	58.6	58.6	45	37.3	0	3	315	0.00	30.278 
09:30	59.0	59.0	59.0	40	34.7	1	3	112	0.00	30.279 
09:35	59.3	59.3	59.3	43	36.8	0	2	68	0.00	30.278 
09:40	59.2	59.2	59.2	34	30.8	1	3	68	0.00	30.278 
09:45	58.9	58.9	58.9	35	31.3	1	5	292	0.00	30.277 
09:50	59.3	59.3	59.3	31	28.7	2	4	90	0.00	30.278 
09:55	59.8	59.8	59.8	40	35.4	1	3	112	0.00	30.276 
10:00	60.2	60.2	60.2	36	33.1	1	5	112	0.00	30.276 
10:05	60.7	60.7	60.7	35	32.9	1	4	90	0.00	30.275 
10:10	61.0	61.0	61.0	31	30.2	2	5	112	0.00	30.274 
10:15	60.2	60.2	60.2	31	29.5	3	6	90	0.00	30.276 
10:20	59.9	59.9	59.9	39	34.9	2	5	68	0.00	30.276 
10:25	60.2	60.2	60.2	34	31.7	2	5	135	0.00	30.276 
10:30	60.1	60.1	60.1	34	31.6	2	6	112	0.00	30.278 
10:35	59.8	59.8	59.8	31	29.1	2	5	112	0.00	30.278 
10:40	60.1	60.1	60.1	30	28.6	2	5	112	0.00	30.279 
10:45	61.0	61.0	61.0	38	35.2	0	2	112	0.00	30.276 
10:50	61.5	61.5	61.5	36	34.3	1	4	112	0.00	30.275 
10:55	61.6	61.6	61.6	39	36.4	1	3	90	0.00	30.274 
11:00	61.6	61.6	61.6	31	30.7	1	5	90	0.00	30.275 
11:05	61.8	61.8	61.8	34	33.1	0	2	90	0.00	30.274 
11:10	62.3	62.3	62.3	32	32.1	1	3	90	0.00	30.272 
11:15	62.4	62.4	62.4	33	32.9	0	2	90	0.00	30.270 
11:20	62.3	62.3	62.3	38	36.4	1	2	90	0.00	30.270 
11:25	62.9	62.9	62.9	40	38.2	1	3	90	0.00	30.271 
11:30	63.1	63.1	63.1	32	32.8	1	3	90	0.00	30.268 
11:35	63.2	63.2	63.2	32	32.9	2	6	135	0.00	30.266 
11:40	63.4	63.4	63.4	38	37.3	1	5	112	0.00	30.264 
11:45	63.2	63.2	63.2	30	31.3	0	3	338	0.00	30.263 
11:50	63.7	63.7	63.7	30	31.7	0	4	68	0.00	30.261 
11:55	64.0	64.0	64.0	41	39.8	1	2	68	0.00	30.261 
12:00	64.0	64.0	64.0	39	38.5	1	3	225	0.00	30.261 
12:05	64.5	64.5	64.5	40	39.6	1	4	112	0.00	30.262 
12:10	64.2	64.2	64.2	33	34.5	1	3	338	0.00	30.262 
12:15	64.2	64.2	64.2	36	36.7	1	2	338	0.00	30.257 
12:20	64.3	64.3	64.3	36	36.8	1	7	45	0.00	30.254 
12:25	64.5	64.5	64.5	38	38.3	1	4	45	0.00	30.252 
12:30	64.5	64.5	64.5	33	34.8	2	6	90	0.00	30.249 
12:35	64.5	64.5	64.5	37	37.6	1	3	90	0.00	30.248 
12:40	64.7	64.7	64.7	32	34.2	1	3	68	0.00	30.248 
12:45	64.7	64.7	64.7	36	37.1	0	1	45	0.00	30.248 
12:50	64.7	64.7	64.7	38	38.5	1	3	338	0.00	30.246 
12:55	64.5	64.5	64.5	31	33.2	2	4	270	0.00	30.246 
13:00	64.5	64.5	64.5	34	35.5	0	2	292	0.00	30.244 
13:05	65.2	65.2	65.2	33	35.4	1	4	90	0.00	30.242 
13:10	65.3	65.3	65.3	35	36.9	1	5	90	0.00	30.241 
13:15	65.0	65.0	65.0	27	30.2	1	3	292	0.00	30.237 
13:20	65.2	65.2	65.2	32	34.6	1	2	315	0.00	30.233 
13:25	65.2	65.2	65.2	36	37.6	2	5	112	0.00	30.233 
13:30	65.5	65.5	65.5	32	34.9	1	3	90	0.00	30.232 
13:35	66.0	66.0	66.0	36	38.3	1	3	68	0.00	30.229 
13:40	65.6	65.6	65.6	33	35.7	1	3	338	0.00	30.228 
13:45	65.8	65.8	65.8	28	31.8	1	4	315	0.00	30.228 
13:50	66.1	66.1	66.1	30	33.8	2	4	112	0.00	30.229 
13:55	65.5	65.5	65.5	33	35.6	2	3	112	0.00	30.226 
14:00	65.3	65.3	65.3	28	31.4	1	2	112	0.00	30.228 
14:05	65.5	65.5	65.5	32	34.9	1	5	90	0.00	30.227 
14:10	65.5	65.5	65.5	27	30.6	1	2	90	0.00	30.230 
14:15	66.1	66.1	66.1	30	33.8	1	4	90	0.00	30.226 
14:20	66.4	66.4	66.4	31	34.8	1	3	90	0.00	30.221 
14:25	66.4	66.4	66.4	26	30.5	2	4	112	0.00	30.220 
14:30	66.4	66.4	66.4	27	31.4	1	3	135	0.00	30.220 
14:35	66.8	66.8	66.8	31	35.2	1	5	112	0.00	30.216 
14:40	66.9	66.9	66.9	27	31.8	1	3	270	0.00	30.216 
14:45	66.4	66.4	66.4	27	31.4	0	2	315	0.00	30.216 
14:50	67.1	67.1	67.1	28	32.9	1	3	315	0.00	30.214 
14:55	67.6	67.6	67.6	27	32.4	1	3	270	0.00	30.214 
15:00	67.4	67.4	67.4	28	33.2	1	3	248	0.00	30.214 
15:05	67.4	67.4	67.4	27	32.3	2	4	248	0.00	30.216 
15:10	67.4	67.4	67.4	27	32.3	0	2	270	0.00	30.213 
15:15	67.1	67.1	67.1	24	29.1	0	2	270	0.00	30.215 
15:20	66.8	66.8	66.8	28	32.6	0	1	270	0.00	30.212 
15:25	66.9	66.9	66.9	27	31.8	1	3	270	0.00	30.209 
15:30	67.4	67.4	67.4	26	31.3	1	3	90	0.00	30.206 
15:35	67.6	67.6	67.6	26	31.5	1	3	22	0.00	30.206 
15:40	67.3	67.3	67.3	26	31.2	1	3	0	0.00	30.205 
15:45	67.4	67.4	67.4	28	33.2	2	4	112	0.00	30.203 
15:50	67.1	67.1	67.1	27	32.0	2	4	112	0.00	30.203 
15:55	67.6	67.6	67.6	27	32.4	0	2	112	0.00	30.201 
16:00	67.8	67.8	67.8	28	33.5	2	5	135	0.00	30.199 
16:05	67.4	67.4	67.4	27	32.3	2	6	112	0.00	30.200 
16:10	67.1	67.1	67.1	26	31.1	2	4	112	0.00	30.201 
16:15	67.1	67.1	67.1	26	31.1	2	4	90	0.00	30.200 
16:20	67.3	67.3	67.3	26	31.2	1	3	90	0.00	30.200 
16:25	67.1	67.1	67.1	22	27.0	1	3	90	0.00	30.200 
16:30	67.1	67.1	67.1	25	30.1	1	3	90	0.00	30.199 
16:35	67.1	67.1	67.1	26	31.1	0	1	90	0.00	30.196 
16:40	67.3	67.3	67.3	24	29.3	0	2	90	0.00	30.195 
16:45	67.3	67.3	67.3	28	33.1	0	1	90	0.00	30.192 
16:50	67.1	67.1	67.1	24	29.1	0	1	90	0.00	30.189 
16:55	67.1	67.1	67.1	25	30.1	0	3	90	0.00	30.188 
17:00	67.1	67.1	67.1	23	28.1	1	3	180	0.00	30.187 
17:05	66.9	66.9	66.9	24	28.9	0	2	112	0.00	30.186 
17:10	66.8	66.8	66.8	25	29.8	0	1	158	0.00	30.186 
17:15	66.9	66.9	66.9	23	27.9	1	2	180	0.00	30.185 
17:20	66.8	66.8	66.8	25	29.8	1	2	225	0.00	30.185 
17:25	66.4	66.4	66.4	22	26.4	0	2	225	0.00	30.185 
17:30	66.1	66.1	66.1	23	27.2	0	0	---	0.00	30.184 
17:35	66.1	66.1	66.1	24	28.3	0	1	225	0.00	30.184 
17:40	66.1	66.1	66.1	25	29.3	0	1	225	0.00	30.184 
17:45	66.1	66.1	66.1	25	29.3	0	1	225	0.00	30.184 
17:50	66.0	66.0	66.0	26	30.1	0	2	225	0.00	30.183 
17:55	65.8	65.8	65.8	25	29.0	1	2	225	0.00	30.183 
18:00	65.6	65.6	65.6	26	29.8	0	1	202	0.00	30.182 
18:05	65.6	65.6	65.6	25	28.8	0	1	202	0.00	30.176 
18:10	65.6	65.6	65.6	24	27.8	0	1	202	0.00	30.177 
18:15	65.5	65.5	65.5	26	29.7	0	1	202	0.00	30.178 
18:20	65.3	65.3	65.3	24	27.6	0	1	202	0.00	30.178 
18:25	65.2	65.2	65.2	25	28.5	0	2	202	0.00	30.177 
18:30	65.2	65.2	65.2	28	31.3	0	0	---	0.00	30.177 
18:35	65.0	65.0	65.0	28	31.1	0	1	202	0.00	30.176 
18:40	64.7	64.7	64.7	28	30.8	0	1	202	0.00	30.173 
18:45	64.5	64.5	64.5	27	29.8	0	1	202	0.00	30.171 
18:50	64.3	64.3	64.3	28	30.5	0	0	---	0.00	30.169 
18:55	64.2	64.2	64.2	28	30.4	0	0	---	0.00	30.169 
19:00	64.0	64.0	64.0	27	29.4	0	1	202	0.00	30.170 
19:05	63.7	63.7	63.7	27	29.1	0	0	---	0.00	30.164 
19:10	63.5	63.5	63.5	27	28.9	0	0	---	0.00	30.164 
19:15	63.1	63.1	63.1	29	30.3	0	0	---	0.00	30.164 
19:20	62.7	62.7	62.7	29	30.0	0	0	---	0.00	30.166 
19:25	62.4	62.4	62.4	30	30.6	0	0	---	0.00	30.165 
19:30	62.0	62.0	62.0	32	31.8	0	0	---	0.00	30.164 
19:35	61.6	61.6	61.6	35	33.7	0	0	---	0.00	30.163 
19:40	61.0	61.0	61.0	36	33.9	0	0	---	0.00	30.162 
19:45	60.4	60.4	60.4	36	33.3	0	0	---	0.00	30.164 
19:50	59.8	59.8	59.8	38	34.1	0	0	---	0.00	30.167 
19:55	59.0	59.0	59.0	37	32.8	0	0	---	0.00	30.168 
20:00	58.4	58.4	58.4	40	34.2	0	0	---	0.00	30.168 
20:05	57.6	57.6	57.6	43	35.3	0	0	---	0.00	30.162 
20:10	57.0	57.0	57.0	44	35.3	0	0	---	0.00	30.163 
20:15	56.6	56.6	56.6	45	35.5	0	0	---	0.00	30.162 
20:20	56.2	56.2	56.2	46	35.7	0	0	---	0.00	30.162 
20:25	55.6	55.6	55.6	48	36.2	0	0	---	0.00	30.163 
20:30	55.0	55.0	55.0	50	36.7	0	0	---	0.00	30.167 
20:35	54.5	54.5	54.5	50	36.2	0	0	---	0.00	30.170 
20:40	54.1	54.1	54.1	51	36.4	0	0	---	0.00	30.170 
20:45	53.6	53.6	53.6	53	36.9	0	0	---	0.00	30.172 
20:50	53.2	53.2	53.2	54	37.0	0	0	---	0.00	30.176 
20:55	52.9	52.9	52.9	56	37.6	0	0	---	0.00	30.177 
21:00	52.6	52.6	52.6	56	37.4	0	0	---	0.00	30.178 
21:05	52.5	52.5	52.5	56	37.3	0	0	---	0.00	30.177 
21:10	52.2	52.2	52.2	58	37.9	0	0	---	0.00	30.178 
21:15	52.0	52.0	52.0	58	37.7	0	0	---	0.00	30.178 
21:20	51.7	51.7	51.7	59	37.8	0	0	---	0.00	30.181 
21:25	51.4	51.4	51.4	59	37.6	0	0	---	0.00	30.182 
21:30	51.1	51.1	51.1	61	38.1	0	0	---	0.00	30.183 
21:35	50.8	50.8	50.8	60	37.4	0	0	---	0.00	30.185 
21:40	50.5	50.5	50.5	61	37.6	0	0	---	0.00	30.187 
21:45	50.2	50.2	50.2	62	37.7	0	0	---	0.00	30.189 
21:50	50.1	50.1	50.1	63	38.0	0	0	---	0.00	30.186 
21:55	49.8	49.8	49.8	64	38.1	0	0	---	0.00	30.184 
22:00	49.5	49.5	49.5	65	38.2	0	0	---	0.00	30.184 
22:05	49.2	49.2	49.2	66	38.3	0	0	---	0.00	30.185 
22:10	48.8	48.8	48.8	67	38.3	0	0	---	0.00	30.182 
22:15	48.5	48.5	48.5	67	38.0	0	0	---	0.00	30.182 
22:20	48.2	48.2	48.2	68	38.1	0	0	---	0.00	30.183 
22:25	47.9	47.9	47.9	69	38.2	0	0	---	0.00	30.181 
22:30	47.6	47.6	47.6	70	38.3	0	0	---	0.00	30.182 
22:35	47.4	47.4	47.4	71	38.5	0	0	---	0.00	30.180 
22:40	47.3	47.3	47.3	71	38.4	0	0	---	0.00	30.179 
22:45	47.1	47.1	47.1	70	37.8	0	0	---	0.00	30.180 
22:50	47.0	47.0	47.0	70	37.7	0	0	---	0.00	30.180 
22:55	46.8	46.8	46.8	71	37.9	0	0	---	0.00	30.179 
23:00	46.7	46.7	46.7	72	38.2	0	0	---	0.00	30.179 
23:05	46.5	46.5	46.5	72	38.0	0	0	---	0.00	30.177 
23:10	46.4	46.4	46.4	72	37.9	0	0	---	0.00	30.176 
23:15	46.2	46.2	46.2	73	38.0	0	0	---	0.00	30.176 
23:20	46.1	46.1	46.1	74	38.3	0	0	---	0.00	30.176 
23:25	46.1	46.1	46.1	75	38.6	0	0	---	0.00	30.175 
23:30	46.0	46.0	46.0	74	38.2	0	0	---	0.00	30.174 
23:35	45.8	45.8	45.8	74	38.0	0	0	---	0.00	30.174 
23:40	45.7	45.7	45.7	74	37.9	0	0	---	0.00	30.173 
23:45	45.7	45.7	45.7	76	38.6	0	0	---	0.00	30.172 
23:50	45.5	45.5	45.5	74	37.7	0	0	---	0.00	30.170 
23:55	45.4	45.4	45.4	75	37.9	0	0	---	0.00	30.169 

CoCoRaHS
IN-AL-39
A2 Web Hosting
Creative Commons License
GoDaddy
Look for:

loaded 2017-10-17 09:39:43 • last modified 2010-11-18 10:43:29
Privacy PolicyDisclaimer
• wx.awcolley.com is powered by PmWiki v.2002016 •
• all content (unless otherwise noted) © 2017 A W Colley